Merriam, Kansas
Current Conditions -  °F | °C
As of 11:54 PM on Friday 28 Nov 2014 (Local Time) from KMKC Reporting Station
Clear Clear  
Wind Chill: 55°   Ceiling: Unl
Heat Index: 55°   Visibility: 10mi
Dew Point: 39°   Wind: 16mph
Humidity: 55%   Direction: 210°SSW
Pressure: 29.71"   Gusts: NA
Location:  38.993°N, 94.6774°W
Report Text: KMKC 290554Z 21014KT 10SM CLR 13/04 A2971 RMK AO2 SLP061 T01280039 10133 20122 401610000 58015
Loading
Personal Weather Stations






























Interactive Weather Map New forecast layout! Learn more

10-Day Weather Forecast

Advertisements
Track Severe Weather on mobile